• Join FlightAware (Why Join?)
  • Login
  • US Flag 
01:25AM EST


 

Airport Tracker/Info


-or-


 

Live Flight TrackerFlight Track Log ✈ PDT4314 ✈ 18-Oct-2013 ✈ KBGM - KPHL

Flight Track Log - Related Links

Times and Time Zones

All times are in EDT time to prevent confusion due to time zone crossing. See the PDT4314 flight status page for this flight to view local times or setup timezone preferences in your user account.

Time Position Orientation Groundspeed Altitude Reporting Facility
EDT Latitude Longitude Course Direction KTS MPH feet Rate Location/Type
06:13PM 42.0499 -75.9277 180° South  Level Estimated
06:14PM 41.9955 -75.9288 181° South  Level FlightAware Approximate
06:15PM 41.9412 -75.9298 181° South  Level FlightAware Approximate
06:16PM 41.8868 -75.9308 181° South  Level FlightAware Approximate
06:17PM 41.8342 -75.9122 154° Southeast  Level Estimated
06:18PM 41.7816 -75.8937 160° South  Level Estimated
06:19PM 41.7278 -75.8839 172° South  Level FlightAware Approximate
06:20PM 41.6752 -75.8651 159° South  Level Estimated
06:21PM 41.6228 -75.8456 164° South  Level FlightAware Approximate
06:22PM 41.5703 -75.8270 153° Southeast  Level Estimated
06:23PM 41.5177 -75.8084 161° South  Level Estimated
06:24PM 41.4668 -75.7829 159° South  Level FlightAware Approximate
06:25PM 41.4159 -75.7575 159° South  Level FlightAware Approximate
06:26PM 41.3649 -75.7321 160° South  Level FlightAware Approximate
06:27PM 41.3122 -75.7144 162° South  Level Estimated
06:28PM 41.2610 -75.6901 160° South  Level FlightAware Approximate
06:29PM 41.2098 -75.6658 160° South  Level FlightAware Approximate
06:30PM 41.1586 -75.6415 160° South  Level FlightAware Approximate
06:31PM 41.1074 -75.6173 160° South  Level FlightAware Approximate
06:32PM 41.0544 -75.6009 159° South  Level Estimated
06:33PM 41.0015 -75.5845 163° South  Level Estimated
06:34PM 40.9503 -75.5602 160° South  Level FlightAware Approximate
06:35PM 40.8991 -75.5360 160° South  Level FlightAware Approximate
06:36PM 40.8479 -75.5118 160° South  Level FlightAware Approximate
06:36PM 40.6667 -75.4667 187° South 239 275 7,700  Level Philadelphia TRACON
06:36PM 40.6333 -75.4667 180° South 251 289 7,300 -720 Descending Philadelphia TRACON
06:37PM 40.7947 -75.4968 190° South  Level Estimated
06:37PM 40.5500 -75.4833 189° South 260 299 6,500  Level Philadelphia TRACON
06:38PM 40.7403 -75.4974 180° South  Level FlightAware Approximate
06:38PM 40.4833 -75.5000 191° South 276 318 5,600  Level Philadelphia TRACON
06:39PM 40.6859 -75.4980 180° South  Level FlightAware Approximate
06:39PM 40.4167 -75.4667 159° South 271 312 5,000  Level Philadelphia TRACON
06:40PM 40.6316 -75.4986 180° South  Level FlightAware Approximate
06:40PM 40.3667 -75.4167 143° Southeast 265 305 4,500  Level Philadelphia TRACON
06:41PM 40.5789 -75.4805 187° South  Level Estimated
06:41PM 40.3000 -75.3667 150° Southeast 262 302 4,000  Level Philadelphia TRACON
06:42PM 40.2333 -75.3167 150° Southeast 250 288 4,000  Level Philadelphia TRACON
06:43PM 40.1833 -75.2667 143° Southeast 220 253 4,000  Level Philadelphia TRACON
06:44PM 40.1333 -75.2333 153° Southeast 225 259 4,000  Level Philadelphia TRACON
06:45PM 40.0667 -75.2000 159° South 222 255 4,000  Level Philadelphia TRACON
06:46PM 40.0167 -75.1833 166° South 219 252 4,000  Level Philadelphia TRACON
06:48PM 39.9500 -75.1667 169° South 216 249 4,000 -120 Level Philadelphia TRACON
06:49PM 39.8833 -75.1333 159° South 217 250 3,800 -840 Descending Philadelphia TRACON
06:50PM 39.8333 -75.1167 166° South 210 242 2,400 -1,140 Descending Philadelphia TRACON
06:51PM 39.8000 -75.1500 218° Southwest 160 184 1,600 -600 Descending Philadelphia TRACON
06:51PM 39.8167 -75.2000 293° West 145 167 1,300 -480 Descending Philadelphia TRACON
06:52PM 39.8500 -75.2167 339° North 118 136 700 -600 Descending Philadelphia TRACON